Flight Track Log - Related Links

Times and Time Zones

All times are in EDT time to prevent confusion due to time zone crossing. See the PDT4226 flight status page for this flight to view local times or setup timezone preferences in your user account.

Time Position Orientation Groundspeed Altitude Reporting Facility
EDT Latitude Longitude Course Direction KTS MPH feet Rate Location/Type
Fri 12:33:17 PM 39.8833 -75.2000 285° West 113 130 800  Level Philadelphia TRACON
Fri 12:34:05 PM 39.9000 -75.1833 37° Northeast 103 119 1,800 1,222 Climbing Philadelphia TRACON
Fri 12:35:00 PM 40.0975 -75.3098 North  Level Estimated
Fri 12:35:05 PM 39.9333 -75.1500 37° Northeast 141 162 3,000  Level Philadelphia TRACON
Fri 12:36:00 PM 40.1725 -75.3328 North  Level Estimated
Fri 12:36:11 PM 39.9833 -75.2000 323° Northwest 187 215 4,300  Level Philadelphia TRACON
Fri 12:37:00 PM 40.2476 -75.3560 311° West  Level Estimated
Fri 12:37:05 PM 40.0167 -75.2333 323° Northwest 183 211 5,500  Level Philadelphia TRACON
Fri 12:38:00 PM 40.2673 -75.4536 285° West  Level FlightAware Approximate
Fri 12:38:11 PM 40.0667 -75.2167 14° North 157 181 6,800  Level Philadelphia TRACON
Fri 12:39:11 PM 40.1000 -75.2000 21° North 176 203 7,500 737 Climbing Philadelphia TRACON
Fri 12:40:05 PM 40.1333 -75.2333 323° Northwest 205 236 8,200 737 Climbing Philadelphia TRACON
Fri 12:41:05 PM 40.1500 -75.3000 288° West 208 239 8,900 348 Climbing Philadelphia TRACON
Fri 12:42:23 PM 40.1667 -75.4000 282° West 242 278 9,000 50 Climbing Philadelphia TRACON
Fri 12:43:05 PM 40.1833 -75.4667 288° West 246 283 9,000 726 Level Philadelphia TRACON
Fri 12:44:27 PM 40.2225 -75.5661 297° West 257 296 10,500 972 Climbing New York Center
Fri 12:45:27 PM 40.2558 -75.6119 314° West 218 251 11,300 800 Climbing New York Center
Fri 12:46:27 PM 40.2908 -75.6772 305° West 203 234 12,100 700 Climbing New York Center
Fri 12:47:27 PM 40.3278 -75.7369 309° West 203 234 12,700 650 Climbing New York Center
Fri 12:48:27 PM 40.3672 -75.7914 314° West 208 239 13,400 650 Climbing New York Center
Fri 12:49:27 PM 40.4003 -75.8458 309° West 213 245 14,000 300 Climbing New York Center
Fri 12:50:27 PM 40.4494 -75.9175 312° West 220 253 14,000  Level New York Center
Fri 12:51:27 PM 40.4975 -75.9619 325° Northwest 232 267 14,000  Level New York Center
Fri 12:52:27 PM 40.5694 -75.9811 349° North 240 276 14,000  Level New York Center
Fri 12:53:27 PM 40.6392 -76.0083 343° North 240 276 14,000  Level New York Center
Fri 12:54:27 PM 40.7008 -76.0294 345° North 246 283 14,000 50 Level New York Center
Fri 12:55:27 PM 40.7522 -76.0444 348° North 246 283 14,100 50 Climbing New York Center
Fri 12:56:27 PM 40.8406 -76.0731 346° North 246 283 14,100  Level New York Center
Fri 12:57:27 PM 40.9081 -76.1003 343° North 246 283 14,100  Level New York Center
Fri 12:58:27 PM 40.9697 -76.1189 347° North 241 277 14,100  Level New York Center
Fri 12:59:27 PM 41.0375 -76.1381 348° North 241 277 14,100 -50 Level New York Center
Fri 01:00:27 PM 41.1114 -76.1631 346° North 241 277 14,000 -50 Descending New York Center
Fri 01:01:27 PM 41.1769 -76.1878 344° North 241 277 14,000  Level New York Center
Fri 01:02:27 PM 41.2450 -76.2069 348° North 241 277 14,000  Level New York Center
Fri 01:03:27 PM 41.3036 -76.1978 North 234 269 14,000  Level New York Center
Fri 01:04:27 PM 41.3786 -76.1983 360° North 234 269 14,000  Level New York Center
Fri 01:05:27 PM 41.4433 -76.1953 North 234 269 14,000  Level New York Center
Fri 01:06:27 PM 41.5103 -76.1869 North 234 269 14,000 -600 Level New York Center
Fri 01:07:27 PM 41.5753 -76.1811 North 247 284 12,800 -1,300 Descending New York Center
Fri 01:08:27 PM 41.6503 -76.1786 North 260 299 11,400 -1,500 Descending New York Center
Fri 01:09:27 PM 41.7292 -76.1822 358° North 267 307 9,800 -1,500 Descending New York Center
Fri 01:10:27 PM 41.7911 -76.1986 349° North 244 281 8,400 -1,400 Descending New York Center
Fri 01:11:27 PM 41.8567 -76.1733 16° North 232 267 7,000 -1,450 Descending New York Center
Fri 01:12:27 PM 41.9086 -76.1328 30° Northeast 232 267 5,500 -1,000 Descending New York Center
Fri 01:13:27 PM 41.9667 -76.0903 29° Northeast 237 273 5,000 -250 Descending New York Center
Fri 01:14:27 PM 42.0283 -76.0617 19° North 213 245 5,000 -450 Level New York Center
Fri 01:15:27 PM 42.0756 -76.0264 29° Northeast 213 245 4,100 -800 Descending New York Center
Fri 01:16:27 PM 42.1150 -75.9819 40° Northeast 201 231 3,400 -750 Descending New York Center
Fri 01:17:27 PM 42.1519 -75.9483 34° Northeast 176 203 2,600 -550 Descending New York Center
Fri 01:18:27 PM 42.1944 -75.9267 21° North 150 173 2,300 -300 Descending New York Center

Login

Don't have an account? Register now (free) for customized features, flight alerts, and more!